createdAt,value
2018-12-16T00:06:43.067Z,14.00
2018-12-16T00:16:45.570Z,13.90
2018-12-16T00:26:59.902Z,14.70
2018-12-16T00:37:02.425Z,14.63
2018-12-16T00:47:04.887Z,14.60
2018-12-16T00:57:07.388Z,15.40
2018-12-16T01:07:09.880Z,14.73
2018-12-16T01:17:12.379Z,14.50
2018-12-16T01:27:14.888Z,13.53
2018-12-16T01:37:17.356Z,13.73
2018-12-16T01:47:19.817Z,14.07
2018-12-16T01:57:22.359Z,13.97
2018-12-16T02:07:24.821Z,13.50
2018-12-16T02:17:27.283Z,15.27
2018-12-16T02:27:29.751Z,14.63
2018-12-16T02:37:32.214Z,14.17
2018-12-16T02:47:34.672Z,14.70
2018-12-16T02:57:37.153Z,14.47
2018-12-16T03:07:39.644Z,14.20
2018-12-16T03:17:42.140Z,13.97
2018-12-16T03:27:44.610Z,13.50
2018-12-16T03:37:47.699Z,14.00
2018-12-16T03:47:50.159Z,13.97
2018-12-16T03:57:52.658Z,14.33
2018-12-16T04:07:55.115Z,14.60
2018-12-16T04:17:57.615Z,13.37
2018-12-16T04:28:00.119Z,13.43
2018-12-16T04:38:02.575Z,14.53
2018-12-16T04:48:05.079Z,14.33
2018-12-16T04:58:07.540Z,14.30
2018-12-16T05:08:10.132Z,14.27
2018-12-16T05:18:12.599Z,14.97
2018-12-16T05:28:15.119Z,15.63
2018-12-16T05:38:17.600Z,14.30
2018-12-16T05:48:20.092Z,16.13
2018-12-16T05:58:22.671Z,15.20
2018-12-16T06:08:25.122Z,15.10
2018-12-16T06:18:27.700Z,16.03
2018-12-16T06:28:30.167Z,15.10
2018-12-16T06:38:32.632Z,16.07
2018-12-16T06:48:35.123Z,16.13
2018-12-16T06:58:37.578Z,15.80
2018-12-16T07:08:40.052Z,16.00
2018-12-16T07:18:42.523Z,16.37
2018-12-16T07:28:44.983Z,16.23
2018-12-16T07:38:47.548Z,15.47
2018-12-16T07:48:50.043Z,16.03
2018-12-16T07:58:52.498Z,16.03
2018-12-16T08:08:55.051Z,16.13
2018-12-16T08:18:57.503Z,16.13
2018-12-16T08:28:59.984Z,16.40
2018-12-16T08:39:03.467Z,20.63
2018-12-16T08:49:05.967Z,16.67
2018-12-16T08:59:08.431Z,16.27
2018-12-16T09:09:11.126Z,17.70
2018-12-16T09:19:13.628Z,18.40
2018-12-16T09:29:16.091Z,18.47
2018-12-16T09:39:18.554Z,19.40
2018-12-16T09:49:21.016Z,20.37
2018-12-16T09:59:23.663Z,18.87
2018-12-16T10:09:26.472Z,19.83
2018-12-16T10:19:29.140Z,20.17
2018-12-16T10:29:31.874Z,19.40
2018-12-16T10:39:34.331Z,20.60
2018-12-16T10:49:37.010Z,20.37
2018-12-16T10:59:39.598Z,21.70
2018-12-16T11:09:42.075Z,20.57
2018-12-16T11:19:44.594Z,21.17
2018-12-16T11:29:47.087Z,21.70
2018-12-16T11:39:49.744Z,22.00
2018-12-16T11:49:52.201Z,22.27
2018-12-16T11:59:54.897Z,21.13
2018-12-16T12:09:57.375Z,25.00
2018-12-16T12:20:00.684Z,22.10
2018-12-16T12:30:03.788Z,22.20
2018-12-16T12:40:06.906Z,23.37
2018-12-16T12:50:09.536Z,23.43
2018-12-16T13:00:13.272Z,22.90
2018-12-16T13:10:15.739Z,23.50
2018-12-16T13:20:18.207Z,23.53
2018-12-16T13:30:20.877Z,22.70
2018-12-16T13:40:23.341Z,25.23
2018-12-16T13:50:25.839Z,24.40
2018-12-16T14:00:28.308Z,23.30
2018-12-16T14:10:30.789Z,23.87
2018-12-16T14:20:33.259Z,23.27
2018-12-16T14:30:35.780Z,29.77
2018-12-16T14:40:38.251Z,24.43
2018-12-16T14:50:40.703Z,24.20
2018-12-16T15:00:43.172Z,24.53
2018-12-16T15:10:45.675Z,25.30
2018-12-16T15:20:48.175Z,24.50
2018-12-16T15:38:09.564Z,25.90
2018-12-16T15:48:12.143Z,25.27
2018-12-16T15:58:14.608Z,24.37
2018-12-16T16:08:17.155Z,24.77
2018-12-16T16:18:43.795Z,27.20
2018-12-16T16:28:46.259Z,26.50
2018-12-16T16:38:48.728Z,26.00
2018-12-16T16:48:51.197Z,26.70
2018-12-16T16:58:53.667Z,28.10
2018-12-16T17:08:56.135Z,27.50
2018-12-16T17:19:00.157Z,26.80
2018-12-16T17:29:02.779Z,26.20
2018-12-16T17:39:06.859Z,25.27
2018-12-16T17:49:09.427Z,27.90
2018-12-16T17:59:17.826Z,25.90
2018-12-16T18:09:16.532Z,25.97
2018-12-16T18:19:19.156Z,28.07
2018-12-16T18:29:21.650Z,29.00
2018-12-16T18:39:24.312Z,28.67
2018-12-16T18:49:26.784Z,28.70
2018-12-16T18:59:29.469Z,26.63
2018-12-16T19:09:31.936Z,28.60
2018-12-16T19:19:34.639Z,27.70
2018-12-16T19:29:37.107Z,30.30
2018-12-16T19:39:39.567Z,30.07
2018-12-16T19:49:42.032Z,28.07
2018-12-16T19:59:44.511Z,27.77
2018-12-16T20:09:46.968Z,27.93
2018-12-16T20:19:49.428Z,29.33
2018-12-16T20:29:51.899Z,29.00
2018-12-16T20:39:54.366Z,29.33
2018-12-16T20:49:56.827Z,27.97
2018-12-16T20:59:59.295Z,27.40
2018-12-16T21:10:01.791Z,32.23
2018-12-16T21:20:05.963Z,25.50
2018-12-16T21:30:09.143Z,24.93
2018-12-16T21:40:11.607Z,24.40
2018-12-16T21:50:14.080Z,25.10
2018-12-16T22:00:16.554Z,24.47
2018-12-16T22:10:19.021Z,25.47
2018-12-16T22:20:21.475Z,25.93
2018-12-16T22:30:23.996Z,25.23
2018-12-16T22:40:26.905Z,25.10
2018-12-16T22:50:29.376Z,25.00
2018-12-16T23:00:33.805Z,27.27
2018-12-16T23:10:36.329Z,26.83
2018-12-16T23:20:38.859Z,26.60
2018-12-16T23:30:41.364Z,25.73
2018-12-16T23:40:43.827Z,26.47
2018-12-16T23:50:46.287Z,26.23
